Bookmark and Share
Track history (hours):
 

Scout

More information available from US FCC via Universal Licensing System and Coast Guard Vessel Documentation Center.

Last reported at 2014-Apr-16 13:33 UTC. Time now 2014-Apr-16 13:46 UTC.
Position N 33°45' W 118°13'.

; draft 5.6 m.

Type: Tug. MMSI: 366764730.

NotesDate/timePositionNaut miles runAvg speedWind from/ knotsBaromVisibWave heightAir tempDewpointWater temp
2014-Apr-16 13:33N 33°45' W 118°13'0 0.0
2014-Apr-16 12:33N 33°45' W 118°13'1 0.5
2014-Apr-16 10:26N 33°46' W 118°14'2 2.2
2014-Apr-16 09:33N 33°45' W 118°16'0 0.0
2014-Apr-16 08:29N 33°45' W 118°16'0 0.0
2014-Apr-16 07:33N 33°45' W 118°16'0 0.0
2014-Apr-16 06:14N 33°45' W 118°16'0 0.0
2014-Apr-16 05:33N 33°45' W 118°16'0 0.0
2014-Apr-16 04:34N 33°45' W 118°16'0 0.0
2014-Apr-16 03:33N 33°45' W 118°16'0 0.0
2014-Apr-16 02:33N 33°45' W 118°16'0 0.0
2014-Apr-16 01:33N 33°45' W 118°16'0 0.0
2014-Apr-16 00:34N 33°45' W 118°16'0 0.0
2014-Apr-15 23:34N 33°45' W 118°16'4 3.9
2014-Apr-15 22:34N 33°44' W 118°12'4 4.0
2014-Apr-15 21:33N 33°45' W 118°17'0 0.1
2014-Apr-15 20:33N 33°45' W 118°17'1 1.2
2014-Apr-15 19:33N 33°43' W 118°16'1 1.1
2014-Apr-15 18:31N 33°44' W 118°17'1 0.2
2014-Apr-15 10:34N 33°44' W 118°15'1 1.2
2014-Apr-15 09:34N 33°43' W 118°15'2 2.2
2014-Apr-15 08:34N 33°44' W 118°12'0 0.4
2014-Apr-15 07:34N 33°45' W 118°12'4 3.6
2014-Apr-15 06:34N 33°44' W 118°17'0 0.0
2014-Apr-15 05:33N 33°44' W 118°17'0 0.0
2014-Apr-15 03:33N 33°44' W 118°17'0 0.0
2014-Apr-15 02:33N 33°44' W 118°17'0 0.0
2014-Apr-15 00:33N 33°44' W 118°17'2 0.8
2014-Apr-14 22:34N 33°46' W 118°16'0 0.2
2014-Apr-14 21:34N 33°46' W 118°16'1 1.4
2014-Apr-14 20:34N 33°44' W 118°17'0 0.0
2014-Apr-14 19:34N 33°44' W 118°17'0 0.0
2014-Apr-14 18:34N 33°44' W 118°17'0 0.0
2014-Apr-14 16:32N 33°44' W 118°17'  
2014-Apr-12 05:15N 33°45' W 118°16'0 0.0
2014-Apr-12 03:05N 33°45' W 118°16'0 0.0
2014-Apr-12 02:33N 33°45' W 118°16'1 0.8
2014-Apr-12 01:28N 33°46' W 118°15'3 3.0
2014-Apr-12 00:34N 33°43' W 118°16'1 1.1
2014-Apr-11 23:34N 33°43' W 118°15'1 1.2
2014-Apr-11 22:33N 33°44' W 118°16'1 1.2
2014-Apr-11 21:34N 33°43' W 118°15'3 1.4
2014-Apr-11 19:33N 33°45' W 118°13'0 0.3
2014-Apr-11 18:32N 33°45' W 118°13'0 0.3
2014-Apr-11 17:28N 33°45' W 118°13'0 0.0
2014-Apr-11 16:33N 33°45' W 118°13'0 0.0
2014-Apr-11 15:33N 33°45' W 118°13'0 0.1
2014-Apr-11 14:25N 33°45' W 118°13'1 1.1
2014-Apr-11 13:33N 33°45' W 118°12'1 1.2
2014-Apr-11 12:33N 33°44' W 118°12'2 1.5
2014-Apr-11 11:34N 33°45' W 118°13'2 1.7
2014-Apr-11 10:33N 33°43' W 118°11'2 1.9
2014-Apr-11 09:34N 33°45' W 118°13'1 1.2
2014-Apr-11 08:33N 33°44' W 118°12'3 3.2
2014-Apr-11 07:34N 33°41' W 118°11'1 0.7
2014-Apr-11 06:34N 33°41' W 118°12'5 5.2
2014-Apr-11 05:31N 33°44' W 118°17'0 0.0
2014-Apr-11 04:33N 33°44' W 118°17'0 0.0
2014-Apr-11 03:33N 33°44' W 118°17'0 0.0
2014-Apr-11 02:34N 33°44' W 118°17'0 0.0
2014-Apr-11 01:34N 33°44' W 118°17'0 0.3
2014-Apr-11 00:34N 33°45' W 118°16'1 0.6
2014-Apr-10 23:34N 33°44' W 118°17'1 0.9
2014-Apr-10 22:33N 33°43' W 118°16'0 0.0
2014-Apr-10 21:33N 33°43' W 118°16'1 1.1
2014-Apr-10 20:34N 33°43' W 118°14'3 2.6
2014-Apr-10 19:33N 33°45' W 118°16'0 0.2
2014-Apr-10 18:31N 33°45' W 118°16'0 0.5
2014-Apr-10 17:34N 33°45' W 118°16'0 0.3
2014-Apr-10 16:33N 33°46' W 118°16'3 2.8
2014-Apr-10 15:33N 33°43' W 118°16'3 3.2
2014-Apr-10 14:33N 33°45' W 118°12'0 0.4
2014-Apr-10 13:33N 33°45' W 118°13'0 0.1
2014-Apr-10 12:33N 33°45' W 118°13'3 3.0
2014-Apr-10 11:34N 33°43' W 118°15'1 0.9
2014-Apr-10 10:34N 33°44' W 118°15'1 1.3
2014-Apr-10 09:33N 33°44' W 118°17'0 0.0
2014-Apr-10 08:33N 33°44' W 118°17'0 0.0
2014-Apr-10 07:33N 33°44' W 118°17'0 0.0
2014-Apr-10 06:32N 33°44' W 118°17'0 0.0
2014-Apr-10 05:33N 33°44' W 118°17'0 0.0
2014-Apr-10 04:32N 33°44' W 118°17'0 0.0
2014-Apr-10 03:33N 33°44' W 118°17'0 0.0
2014-Apr-10 02:33N 33°44' W 118°17'1 0.9
2014-Apr-10 01:34N 33°45' W 118°16'0 0.1
2014-Apr-10 00:29N 33°45' W 118°17'0 0.3
2014-Apr-09 23:30N 33°45' W 118°16'0 0.0
2014-Apr-09 22:34N 33°45' W 118°16'0 0.0
2014-Apr-09 21:32N 33°45' W 118°16'0 0.0
2014-Apr-09 20:20N 33°45' W 118°16'0 0.0
2014-Apr-09 19:34N 33°45' W 118°16'0 0.0
2014-Apr-09 18:25N 33°45' W 118°16'0 0.2
2014-Apr-09 17:34N 33°45' W 118°16'3 2.6
2014-Apr-09 16:33N 33°45' W 118°13'2 1.5
2014-Apr-09 15:33N 33°44' W 118°13'1 0.7
2014-Apr-09 14:33N 33°43' W 118°14'3 2.7
2014-Apr-09 13:33N 33°45' W 118°11'4 3.6
2014-Apr-09 12:34N 33°43' W 118°15'1 1.1
2014-Apr-09 11:34N 33°43' W 118°16'0 0.4
2014-Apr-09 10:33N 33°43' W 118°16'2 1.3
2014-Apr-09 09:21N 33°44' W 118°17'0 0.0
2014-Apr-09 08:12N 33°44' W 118°17'0 0.0
2014-Apr-09 07:31N 33°44' W 118°17'0 0.0
2014-Apr-09 06:30N 33°44' W 118°17'0 0.0
2014-Apr-09 05:33N 33°44' W 118°17'0 0.0
2014-Apr-09 04:32N 33°44' W 118°17'0 0.0
2014-Apr-09 03:30N 33°44' W 118°17'0 0.0
2014-Apr-09 02:30N 33°44' W 118°17'1 1.2
2014-Apr-09 01:31N 33°44' W 118°15'0 0.1
2014-Apr-09 00:31N 33°44' W 118°15'0 0.0
2014-Apr-08 22:16N 33°44' W 118°15'1 0.3
2014-Apr-08 18:22N 33°44' W 118°17'0 0.0
2014-Apr-08 17:29N 33°44' W 118°17'0 0.0
2014-Apr-08 16:29N 33°44' W 118°17'0 0.0
2014-Apr-08 15:27N 33°44' W 118°17'0 0.1
2014-Apr-08 14:29N 33°44' W 118°17'3 2.7
2014-Apr-08 13:32N 33°43' W 118°14'2 1.4
2014-Apr-08 12:20N 33°44' W 118°12'0 0.5
2014-Apr-08 11:33N 33°44' W 118°12'1 1.5
2014-Apr-08 10:33N 33°45' W 118°13'3 3.4
2014-Apr-08 09:34N 33°42' W 118°11'1 0.8
2014-Apr-08 08:34N 33°43' W 118°11'3 2.8
2014-Apr-08 07:34N 33°45' W 118°13'0 0.1
2014-Apr-08 05:29N 33°45' W 118°13'3 0.8
2014-Apr-08 01:34N 33°44' W 118°17'0 0.3
2014-Apr-08 00:33N 33°45' W 118°17'1 0.9
2014-Apr-07 23:32N 33°46' W 118°16'1 0.5
2014-Apr-07 22:33N 33°45' W 118°16'1 0.7
2014-Apr-07 21:34N 33°44' W 118°17'0 0.0
2014-Apr-07 20:34N 33°44' W 118°17'1 1.3
2014-Apr-07 19:33N 33°44' W 118°15'1 0.6
2014-Apr-07 17:32N 33°44' W 118°17'0 0.0
2014-Apr-07 16:34N 33°44' W 118°17'0 0.0
2014-Apr-07 15:33N 33°44' W 118°17'0 0.0
2014-Apr-07 14:34N 33°44' W 118°17'1 1.3
2014-Apr-07 13:33N 33°44' W 118°15'1 1.2
2014-Apr-07 12:34N 33°43' W 118°15'3 3.0
2014-Apr-07 11:33N 33°45' W 118°13'0 0.2
2014-Apr-07 10:33N 33°45' W 118°13'2 1.7
2014-Apr-07 09:34N 33°44' W 118°12'1 1.4
2014-Apr-07 08:33N 33°45' W 118°13'0 0.3
2014-Apr-07 07:34N 33°45' W 118°13'3 3.1
2014-Apr-07 06:34N 33°44' W 118°17'0 0.0
2014-Apr-07 05:33N 33°44' W 118°17'0 0.0
2014-Apr-07 04:33N 33°44' W 118°17'0 0.4
2014-Apr-07 03:33N 33°44' W 118°17'0 0.2
2014-Apr-07 02:34N 33°44' W 118°17'0 0.1
2014-Apr-07 01:33N 33°44' W 118°17'0 0.4
2014-Apr-07 00:34N 33°44' W 118°17'1 0.7
2014-Apr-06 23:33N 33°43' W 118°16'1 1.2
2014-Apr-06 22:34N 33°44' W 118°17'0 0.0
2014-Apr-06 21:34N 33°44' W 118°17'0 0.0
2014-Apr-06 20:33N 33°44' W 118°17'0 0.0
2014-Apr-06 19:32N 33°44' W 118°17'1 1.2
2014-Apr-06 18:31N 33°46' W 118°16'1 1.3
2014-Apr-06 17:33N 33°44' W 118°17'  

Dump ship's entire track history

sailing weather and tide predictions

Scout — WCZ2046 — position and weather